sensor_id;sensor_type;location;lat;lon;timestamp;P1;durP1;ratioP1;P2;durP2;ratioP2
60416;SDS011;46263;44.726;10.396;2022-12-29T00:01:13;83.93;;;34.80;;
60416;SDS011;46263;44.726;10.396;2022-12-29T00:03:39;90.13;;;33.38;;
60416;SDS011;46263;44.726;10.396;2022-12-29T00:06:04;83.80;;;36.72;;
60416;SDS011;46263;44.726;10.396;2022-12-29T00:08:30;87.38;;;36.38;;
60416;SDS011;46263;44.726;10.396;2022-12-29T00:11:15;91.45;;;34.65;;
60416;SDS011;46263;44.726;10.396;2022-12-29T00:13:43;90.35;;;36.00;;
60416;SDS011;46263;44.726;10.396;2022-12-29T00:16:27;89.30;;;35.58;;
60416;SDS011;46263;44.726;10.396;2022-12-29T00:18:52;91.80;;;35.83;;
60416;SDS011;46263;44.726;10.396;2022-12-29T00:21:19;81.65;;;34.95;;
60416;SDS011;46263;44.726;10.396;2022-12-29T00:24:04;78.63;;;35.60;;
60416;SDS011;46263;44.726;10.396;2022-12-29T00:26:56;90.75;;;37.67;;
60416;SDS011;46263;44.726;10.396;2022-12-29T00:29:47;96.10;;;36.75;;
60416;SDS011;46263;44.726;10.396;2022-12-29T00:32:31;90.15;;;35.83;;
60416;SDS011;46263;44.726;10.396;2022-12-29T00:35:38;88.38;;;34.17;;
60416;SDS011;46263;44.726;10.396;2022-12-29T00:38:04;94.25;;;35.72;;
60416;SDS011;46263;44.726;10.396;2022-12-29T00:40:50;88.75;;;35.13;;
60416;SDS011;46263;44.726;10.396;2022-12-29T00:43:34;87.30;;;34.67;;
60416;SDS011;46263;44.726;10.396;2022-12-29T00:48:43;93.32;;;37.45;;
60416;SDS011;46263;44.726;10.396;2022-12-29T00:51:27;87.95;;;36.97;;
60416;SDS011;46263;44.726;10.396;2022-12-29T00:53:53;83.28;;;34.25;;
60416;SDS011;46263;44.726;10.396;2022-12-29T00:56:19;88.57;;;35.97;;
60416;SDS011;46263;44.726;10.396;2022-12-29T00:58:44;89.25;;;36.85;;
60416;SDS011;46263;44.726;10.396;2022-12-29T01:01:10;84.30;;;34.88;;
60416;SDS011;46263;44.726;10.396;2022-12-29T01:03:36;87.28;;;35.13;;
60416;SDS011;46263;44.726;10.396;2022-12-29T01:06:03;89.03;;;34.40;;
60416;SDS011;46263;44.726;10.396;2022-12-29T01:08:30;87.13;;;37.83;;
60416;SDS011;46263;44.726;10.396;2022-12-29T01:13:29;82.40;;;37.40;;
60416;SDS011;46263;44.726;10.396;2022-12-29T01:15:55;92.25;;;37.72;;
60416;SDS011;46263;44.726;10.396;2022-12-29T01:18:21;87.15;;;37.42;;
60416;SDS011;46263;44.726;10.396;2022-12-29T01:20:47;92.43;;;36.58;;
60416;SDS011;46263;44.726;10.396;2022-12-29T01:23:13;86.13;;;37.25;;
60416;SDS011;46263;44.726;10.396;2022-12-29T01:25:38;94.65;;;37.88;;
60416;SDS011;46263;44.726;10.396;2022-12-29T01:28:04;91.25;;;36.80;;
60416;SDS011;46263;44.726;10.396;2022-12-29T01:30:30;93.70;;;37.05;;
60416;SDS011;46263;44.726;10.396;2022-12-29T01:32:55;90.63;;;36.40;;
60416;SDS011;46263;44.726;10.396;2022-12-29T01:35:21;97.40;;;38.63;;
60416;SDS011;46263;44.726;10.396;2022-12-29T01:37:46;87.88;;;37.85;;
60416;SDS011;46263;44.726;10.396;2022-12-29T01:40:12;89.53;;;35.67;;
60416;SDS011;46263;44.726;10.396;2022-12-29T01:42:38;83.00;;;35.03;;
60416;SDS011;46263;44.726;10.396;2022-12-29T01:45:08;88.85;;;36.10;;
60416;SDS011;46263;44.726;10.396;2022-12-29T01:47:38;87.57;;;37.42;;
60416;SDS011;46263;44.726;10.396;2022-12-29T01:50:06;87.22;;;37.53;;
60416;SDS011;46263;44.726;10.396;2022-12-29T01:52:37;86.53;;;35.88;;
60416;SDS011;46263;44.726;10.396;2022-12-29T01:55:06;89.68;;;37.65;;
60416;SDS011;46263;44.726;10.396;2022-12-29T01:57:37;92.18;;;38.30;;
60416;SDS011;46263;44.726;10.396;2022-12-29T02:00:09;80.80;;;37.70;;
60416;SDS011;46263;44.726;10.396;2022-12-29T02:02:37;87.15;;;37.38;;
60416;SDS011;46263;44.726;10.396;2022-12-29T02:05:05;84.53;;;37.25;;
60416;SDS011;46263;44.726;10.396;2022-12-29T02:07:36;84.45;;;35.72;;
60416;SDS011;46263;44.726;10.396;2022-12-29T02:10:03;96.53;;;39.75;;
60416;SDS011;46263;44.726;10.396;2022-12-29T02:12:29;96.05;;;40.40;;
60416;SDS011;46263;44.726;10.396;2022-12-29T02:14:55;91.35;;;38.25;;
60416;SDS011;46263;44.726;10.396;2022-12-29T02:23:00;83.43;;;35.58;;
60416;SDS011;46263;44.726;10.396;2022-12-29T02:35:35;84.85;;;38.72;;
60416;SDS011;46263;44.726;10.396;2022-12-29T02:38:13;88.32;;;36.15;;
60416;SDS011;46263;44.726;10.396;2022-12-29T02:40:48;97.07;;;40.70;;
60416;SDS011;46263;44.726;10.396;2022-12-29T02:43:27;103.32;;;37.92;;
60416;SDS011;46263;44.726;10.396;2022-12-29T02:45:58;90.18;;;37.00;;
60416;SDS011;46263;44.726;10.396;2022-12-29T02:48:30;92.55;;;37.08;;
60416;SDS011;46263;44.726;10.396;2022-12-29T02:51:15;86.95;;;37.28;;
60416;SDS011;46263;44.726;10.396;2022-12-29T02:53:48;96.40;;;38.85;;
60416;SDS011;46263;44.726;10.396;2022-12-29T02:56:34;92.22;;;39.20;;
60416;SDS011;46263;44.726;10.396;2022-12-29T02:59:00;96.40;;;38.80;;
60416;SDS011;46263;44.726;10.396;2022-12-29T03:01:31;97.93;;;39.30;;
60416;SDS011;46263;44.726;10.396;2022-12-29T03:04:47;90.90;;;38.00;;
60416;SDS011;46263;44.726;10.396;2022-12-29T03:07:40;88.72;;;38.60;;
60416;SDS011;46263;44.726;10.396;2022-12-29T03:12:56;92.65;;;38.90;;
60416;SDS011;46263;44.726;10.396;2022-12-29T03:15:55;78.32;;;36.25;;
60416;SDS011;46263;44.726;10.396;2022-12-29T03:18:56;78.57;;;35.75;;
60416;SDS011;46263;44.726;10.396;2022-12-29T03:24:15;72.00;;;33.30;;
60416;SDS011;46263;44.726;10.396;2022-12-29T03:26:43;78.68;;;34.45;;
60416;SDS011;46263;44.726;10.396;2022-12-29T03:29:11;85.88;;;35.88;;
60416;SDS011;46263;44.726;10.396;2022-12-29T03:31:40;79.43;;;35.08;;
60416;SDS011;46263;44.726;10.396;2022-12-29T03:34:06;79.03;;;36.20;;
60416;SDS011;46263;44.726;10.396;2022-12-29T03:36:37;73.70;;;34.30;;
60416;SDS011;46263;44.726;10.396;2022-12-29T03:39:10;89.75;;;37.53;;
60416;SDS011;46263;44.726;10.396;2022-12-29T03:41:42;72.97;;;34.15;;
60416;SDS011;46263;44.726;10.396;2022-12-29T03:44:10;84.60;;;35.47;;
60416;SDS011;46263;44.726;10.396;2022-12-29T03:46:37;82.90;;;38.00;;
60416;SDS011;46263;44.726;10.396;2022-12-29T03:49:03;78.93;;;36.13;;
60416;SDS011;46263;44.726;10.396;2022-12-29T03:51:28;77.28;;;35.42;;
60416;SDS011;46263;44.726;10.396;2022-12-29T03:53:54;89.38;;;38.13;;
60416;SDS011;46263;44.726;10.396;2022-12-29T03:56:19;84.03;;;39.03;;
60416;SDS011;46263;44.726;10.396;2022-12-29T03:58:45;78.82;;;36.50;;
60416;SDS011;46263;44.726;10.396;2022-12-29T04:01:10;82.40;;;37.30;;
60416;SDS011;46263;44.726;10.396;2022-12-29T04:03:36;90.03;;;39.72;;
60416;SDS011;46263;44.726;10.396;2022-12-29T04:06:01;79.28;;;36.92;;
60416;SDS011;46263;44.726;10.396;2022-12-29T04:08:27;92.43;;;38.40;;
60416;SDS011;46263;44.726;10.396;2022-12-29T04:10:52;85.90;;;38.22;;
60416;SDS011;46263;44.726;10.396;2022-12-29T04:13:17;97.18;;;38.72;;
60416;SDS011;46263;44.726;10.396;2022-12-29T04:15:43;91.88;;;37.65;;
60416;SDS011;46263;44.726;10.396;2022-12-29T04:18:10;93.57;;;39.75;;
60416;SDS011;46263;44.726;10.396;2022-12-29T04:20:36;88.78;;;39.15;;
60416;SDS011;46263;44.726;10.396;2022-12-29T04:23:20;87.13;;;39.60;;
60416;SDS011;46263;44.726;10.396;2022-12-29T04:25:46;85.10;;;38.55;;
60416;SDS011;46263;44.726;10.396;2022-12-29T04:28:12;84.85;;;38.55;;
60416;SDS011;46263;44.726;10.396;2022-12-29T04:30:38;86.00;;;37.97;;
60416;SDS011;46263;44.726;10.396;2022-12-29T04:33:04;93.28;;;37.75;;
60416;SDS011;46263;44.726;10.396;2022-12-29T04:35:29;84.63;;;39.20;;
60416;SDS011;46263;44.726;10.396;2022-12-29T04:37:55;102.85;;;39.20;;
60416;SDS011;46263;44.726;10.396;2022-12-29T04:40:20;91.32;;;39.15;;
60416;SDS011;46263;44.726;10.396;2022-12-29T04:42:46;98.70;;;39.45;;
60416;SDS011;46263;44.726;10.396;2022-12-29T04:45:11;101.57;;;38.83;;
60416;SDS011;46263;44.726;10.396;2022-12-29T04:47:37;107.65;;;41.88;;
60416;SDS011;46263;44.726;10.396;2022-12-29T04:50:02;107.63;;;42.60;;
60416;SDS011;46263;44.726;10.396;2022-12-29T04:52:29;106.78;;;42.38;;
60416;SDS011;46263;44.726;10.396;2022-12-29T04:54:54;107.43;;;43.00;;
60416;SDS011;46263;44.726;10.396;2022-12-29T04:57:20;108.05;;;41.42;;
60416;SDS011;46263;44.726;10.396;2022-12-29T04:59:45;118.43;;;45.35;;
60416;SDS011;46263;44.726;10.396;2022-12-29T05:02:11;101.70;;;43.13;;
60416;SDS011;46263;44.726;10.396;2022-12-29T05:04:36;97.72;;;41.45;;
60416;SDS011;46263;44.726;10.396;2022-12-29T05:07:02;111.35;;;42.35;;
60416;SDS011;46263;44.726;10.396;2022-12-29T05:09:27;103.15;;;39.85;;
60416;SDS011;46263;44.726;10.396;2022-12-29T05:11:53;95.40;;;41.92;;
60416;SDS011;46263;44.726;10.396;2022-12-29T05:14:18;101.18;;;41.13;;
60416;SDS011;46263;44.726;10.396;2022-12-29T05:16:43;100.53;;;41.50;;
60416;SDS011;46263;44.726;10.396;2022-12-29T05:19:09;101.05;;;42.17;;
60416;SDS011;46263;44.726;10.396;2022-12-29T05:21:34;103.68;;;42.10;;
60416;SDS011;46263;44.726;10.396;2022-12-29T05:24:00;97.20;;;39.65;;
60416;SDS011;46263;44.726;10.396;2022-12-29T05:26:25;105.43;;;42.72;;
60416;SDS011;46263;44.726;10.396;2022-12-29T05:28:51;108.85;;;41.45;;
60416;SDS011;46263;44.726;10.396;2022-12-29T05:31:17;103.03;;;42.33;;
60416;SDS011;46263;44.726;10.396;2022-12-29T05:33:42;104.47;;;40.78;;
60416;SDS011;46263;44.726;10.396;2022-12-29T05:36:08;113.13;;;40.70;;
60416;SDS011;46263;44.726;10.396;2022-12-29T05:38:34;109.07;;;41.35;;
60416;SDS011;46263;44.726;10.396;2022-12-29T05:41:00;106.18;;;40.25;;
60416;SDS011;46263;44.726;10.396;2022-12-29T05:43:26;111.72;;;43.22;;
60416;SDS011;46263;44.726;10.396;2022-12-29T05:45:51;102.07;;;41.95;;
60416;SDS011;46263;44.726;10.396;2022-12-29T05:48:18;105.43;;;41.35;;
60416;SDS011;46263;44.726;10.396;2022-12-29T05:50:47;105.90;;;38.08;;
60416;SDS011;46263;44.726;10.396;2022-12-29T05:53:16;113.30;;;41.30;;
60416;SDS011;46263;44.726;10.396;2022-12-29T05:55:42;104.30;;;41.10;;
60416;SDS011;46263;44.726;10.396;2022-12-29T05:58:08;111.07;;;42.35;;
60416;SDS011;46263;44.726;10.396;2022-12-29T06:00:34;113.43;;;42.45;;
60416;SDS011;46263;44.726;10.396;2022-12-29T06:02:59;111.35;;;41.78;;
60416;SDS011;46263;44.726;10.396;2022-12-29T06:05:24;111.72;;;42.45;;
60416;SDS011;46263;44.726;10.396;2022-12-29T06:07:50;108.13;;;40.88;;
60416;SDS011;46263;44.726;10.396;2022-12-29T06:10:16;117.95;;;41.03;;
60416;SDS011;46263;44.726;10.396;2022-12-29T06:12:41;113.32;;;42.25;;
60416;SDS011;46263;44.726;10.396;2022-12-29T06:15:07;112.68;;;40.55;;
60416;SDS011;46263;44.726;10.396;2022-12-29T06:17:33;116.03;;;40.08;;
60416;SDS011;46263;44.726;10.396;2022-12-29T06:19:59;115.28;;;42.13;;
60416;SDS011;46263;44.726;10.396;2022-12-29T06:22:24;110.95;;;41.70;;
60416;SDS011;46263;44.726;10.396;2022-12-29T06:24:50;116.25;;;41.95;;
60416;SDS011;46263;44.726;10.396;2022-12-29T06:27:15;119.28;;;41.30;;
60416;SDS011;46263;44.726;10.396;2022-12-29T06:29:41;123.45;;;43.17;;
60416;SDS011;46263;44.726;10.396;2022-12-29T06:32:07;113.32;;;41.20;;
60416;SDS011;46263;44.726;10.396;2022-12-29T06:34:33;111.55;;;40.58;;
60416;SDS011;46263;44.726;10.396;2022-12-29T06:36:59;111.68;;;40.85;;
60416;SDS011;46263;44.726;10.396;2022-12-29T06:39:24;110.50;;;39.08;;
60416;SDS011;46263;44.726;10.396;2022-12-29T06:41:53;111.72;;;42.10;;
60416;SDS011;46263;44.726;10.396;2022-12-29T06:44:20;119.93;;;41.00;;
60416;SDS011;46263;44.726;10.396;2022-12-29T06:46:46;111.65;;;40.33;;
60416;SDS011;46263;44.726;10.396;2022-12-29T06:49:12;111.47;;;41.25;;
60416;SDS011;46263;44.726;10.396;2022-12-29T06:51:38;110.75;;;40.13;;
60416;SDS011;46263;44.726;10.396;2022-12-29T06:54:03;105.25;;;40.63;;
60416;SDS011;46263;44.726;10.396;2022-12-29T06:56:29;104.57;;;40.92;;
60416;SDS011;46263;44.726;10.396;2022-12-29T06:58:54;109.30;;;41.22;;
60416;SDS011;46263;44.726;10.396;2022-12-29T07:01:20;110.18;;;40.85;;
60416;SDS011;46263;44.726;10.396;2022-12-29T07:03:45;106.55;;;40.38;;
60416;SDS011;46263;44.726;10.396;2022-12-29T07:06:11;94.75;;;38.80;;
60416;SDS011;46263;44.726;10.396;2022-12-29T07:08:36;107.38;;;39.47;;
60416;SDS011;46263;44.726;10.396;2022-12-29T07:11:02;117.28;;;43.67;;
60416;SDS011;46263;44.726;10.396;2022-12-29T07:13:27;115.95;;;39.45;;
60416;SDS011;46263;44.726;10.396;2022-12-29T07:15:53;114.25;;;39.03;;
60416;SDS011;46263;44.726;10.396;2022-12-29T07:18:18;110.97;;;39.70;;
60416;SDS011;46263;44.726;10.396;2022-12-29T07:20:44;112.05;;;40.33;;
60416;SDS011;46263;44.726;10.396;2022-12-29T07:23:10;110.88;;;39.92;;
60416;SDS011;46263;44.726;10.396;2022-12-29T07:25:35;112.32;;;40.90;;
60416;SDS011;46263;44.726;10.396;2022-12-29T07:28:02;104.15;;;36.75;;
60416;SDS011;46263;44.726;10.396;2022-12-29T07:30:27;110.63;;;41.78;;
60416;SDS011;46263;44.726;10.396;2022-12-29T07:32:53;110.47;;;42.20;;
60416;SDS011;46263;44.726;10.396;2022-12-29T07:35:18;93.38;;;36.83;;
60416;SDS011;46263;44.726;10.396;2022-12-29T07:37:44;113.22;;;40.85;;
60416;SDS011;46263;44.726;10.396;2022-12-29T07:40:10;96.53;;;37.85;;
60416;SDS011;46263;44.726;10.396;2022-12-29T07:42:36;115.70;;;39.55;;
60416;SDS011;46263;44.726;10.396;2022-12-29T07:45:02;106.13;;;38.63;;
60416;SDS011;46263;44.726;10.396;2022-12-29T07:47:27;111.75;;;41.88;;
60416;SDS011;46263;44.726;10.396;2022-12-29T07:49:53;109.50;;;38.10;;
60416;SDS011;46263;44.726;10.396;2022-12-29T07:52:18;103.93;;;37.38;;
60416;SDS011;46263;44.726;10.396;2022-12-29T07:54:44;111.30;;;41.10;;
60416;SDS011;46263;44.726;10.396;2022-12-29T07:57:10;111.65;;;38.42;;
60416;SDS011;46263;44.726;10.396;2022-12-29T07:59:35;104.13;;;37.92;;
60416;SDS011;46263;44.726;10.396;2022-12-29T08:02:01;107.65;;;40.10;;
60416;SDS011;46263;44.726;10.396;2022-12-29T08:04:26;100.57;;;38.78;;
60416;SDS011;46263;44.726;10.396;2022-12-29T08:06:52;100.72;;;36.15;;
60416;SDS011;46263;44.726;10.396;2022-12-29T08:09:17;96.55;;;37.63;;
60416;SDS011;46263;44.726;10.396;2022-12-29T08:11:43;111.55;;;39.08;;
60416;SDS011;46263;44.726;10.396;2022-12-29T08:14:08;100.07;;;38.22;;
60416;SDS011;46263;44.726;10.396;2022-12-29T08:16:34;110.00;;;38.45;;
60416;SDS011;46263;44.726;10.396;2022-12-29T08:19:00;108.47;;;38.08;;
60416;SDS011;46263;44.726;10.396;2022-12-29T08:21:27;98.43;;;38.60;;
60416;SDS011;46263;44.726;10.396;2022-12-29T08:23:53;95.22;;;35.45;;
60416;SDS011;46263;44.726;10.396;2022-12-29T08:26:18;94.60;;;38.30;;
60416;SDS011;46263;44.726;10.396;2022-12-29T08:28:44;101.05;;;39.03;;
60416;SDS011;46263;44.726;10.396;2022-12-29T08:31:09;102.13;;;37.47;;
60416;SDS011;46263;44.726;10.396;2022-12-29T08:33:35;102.55;;;38.63;;
60416;SDS011;46263;44.726;10.396;2022-12-29T08:36:01;103.53;;;38.25;;
60416;SDS011;46263;44.726;10.396;2022-12-29T08:38:28;101.57;;;39.80;;
60416;SDS011;46263;44.726;10.396;2022-12-29T08:40:54;111.30;;;39.30;;
60416;SDS011;46263;44.726;10.396;2022-12-29T08:43:20;103.88;;;39.63;;
60416;SDS011;46263;44.726;10.396;2022-12-29T08:45:45;104.88;;;37.80;;
60416;SDS011;46263;44.726;10.396;2022-12-29T08:48:11;93.50;;;37.47;;
60416;SDS011;46263;44.726;10.396;2022-12-29T08:50:36;94.45;;;35.95;;
60416;SDS011;46263;44.726;10.396;2022-12-29T08:53:02;108.60;;;42.42;;
60416;SDS011;46263;44.726;10.396;2022-12-29T08:55:27;93.80;;;37.13;;
60416;SDS011;46263;44.726;10.396;2022-12-29T08:57:53;98.20;;;36.88;;
60416;SDS011;46263;44.726;10.396;2022-12-29T09:00:18;96.43;;;38.78;;
60416;SDS011;46263;44.726;10.396;2022-12-29T09:02:45;97.07;;;36.30;;
60416;SDS011;46263;44.726;10.396;2022-12-29T09:05:11;94.13;;;37.97;;
60416;SDS011;46263;44.726;10.396;2022-12-29T09:07:36;99.35;;;38.70;;
60416;SDS011;46263;44.726;10.396;2022-12-29T09:10:02;102.82;;;39.28;;
60416;SDS011;46263;44.726;10.396;2022-12-29T09:12:29;99.60;;;38.35;;
60416;SDS011;46263;44.726;10.396;2022-12-29T09:14:54;99.90;;;39.22;;
60416;SDS011;46263;44.726;10.396;2022-12-29T09:17:19;110.70;;;38.05;;
60416;SDS011;46263;44.726;10.396;2022-12-29T09:20:04;97.95;;;38.17;;
60416;SDS011;46263;44.726;10.396;2022-12-29T09:22:30;105.20;;;40.95;;
60416;SDS011;46263;44.726;10.396;2022-12-29T09:24:55;112.30;;;41.72;;
60416;SDS011;46263;44.726;10.396;2022-12-29T09:27:21;113.20;;;39.95;;
60416;SDS011;46263;44.726;10.396;2022-12-29T09:29:46;116.00;;;41.03;;
60416;SDS011;46263;44.726;10.396;2022-12-29T09:32:12;110.38;;;40.72;;
60416;SDS011;46263;44.726;10.396;2022-12-29T09:34:37;98.75;;;38.42;;
60416;SDS011;46263;44.726;10.396;2022-12-29T09:37:02;106.85;;;39.03;;
60416;SDS011;46263;44.726;10.396;2022-12-29T09:39:28;113.03;;;39.50;;
60416;SDS011;46263;44.726;10.396;2022-12-29T09:42:01;119.30;;;42.22;;
60416;SDS011;46263;44.726;10.396;2022-12-29T09:47:29;108.43;;;39.10;;
60416;SDS011;46263;44.726;10.396;2022-12-29T09:50:00;121.18;;;42.30;;
60416;SDS011;46263;44.726;10.396;2022-12-29T09:55:49;109.18;;;38.80;;
60416;SDS011;46263;44.726;10.396;2022-12-29T10:25:20;128.40;;;41.70;;
60416;SDS011;46263;44.726;10.396;2022-12-29T10:27:50;118.15;;;42.53;;
60416;SDS011;46263;44.726;10.396;2022-12-29T10:30:19;131.27;;;45.00;;
60416;SDS011;46263;44.726;10.396;2022-12-29T10:32:46;127.15;;;42.88;;
60416;SDS011;46263;44.726;10.396;2022-12-29T10:40:38;125.97;;;43.63;;
60416;SDS011;46263;44.726;10.396;2022-12-29T10:43:21;135.43;;;44.10;;
60416;SDS011;46263;44.726;10.396;2022-12-29T10:45:47;136.63;;;44.85;;
60416;SDS011;46263;44.726;10.396;2022-12-29T10:48:20;140.77;;;44.00;;
60416;SDS011;46263;44.726;10.396;2022-12-29T10:50:49;151.40;;;46.33;;
60416;SDS011;46263;44.726;10.396;2022-12-29T10:53:22;132.52;;;44.03;;
60416;SDS011;46263;44.726;10.396;2022-12-29T10:58:17;138.48;;;45.80;;
60416;SDS011;46263;44.726;10.396;2022-12-29T11:00:46;119.10;;;41.35;;
60416;SDS011;46263;44.726;10.396;2022-12-29T11:05:56;114.57;;;38.05;;
60416;SDS011;46263;44.726;10.396;2022-12-29T11:08:27;118.22;;;42.40;;
60416;SDS011;46263;44.726;10.396;2022-12-29T11:11:06;120.72;;;40.88;;
60416;SDS011;46263;44.726;10.396;2022-12-29T11:13:35;106.75;;;40.60;;
60416;SDS011;46263;44.726;10.396;2022-12-29T11:16:13;103.22;;;36.47;;
60416;SDS011;46263;44.726;10.396;2022-12-29T11:18:39;121.03;;;42.17;;
60416;SDS011;46263;44.726;10.396;2022-12-29T11:24:05;112.35;;;38.38;;
60416;SDS011;46263;44.726;10.396;2022-12-29T11:26:43;104.07;;;37.72;;
60416;SDS011;46263;44.726;10.396;2022-12-29T11:31:48;99.22;;;38.17;;
60416;SDS011;46263;44.726;10.396;2022-12-29T11:34:26;106.68;;;38.92;;
60416;SDS011;46263;44.726;10.396;2022-12-29T11:37:11;110.57;;;36.90;;
60416;SDS011;46263;44.726;10.396;2022-12-29T11:40:24;95.63;;;35.33;;
60416;SDS011;46263;44.726;10.396;2022-12-29T11:42:36;109.82;;;38.90;;
60416;SDS011;46263;44.726;10.396;2022-12-29T11:45:18;95.15;;;35.85;;
60416;SDS011;46263;44.726;10.396;2022-12-29T11:47:47;108.68;;;37.33;;
60416;SDS011;46263;44.726;10.396;2022-12-29T11:50:35;99.97;;;35.60;;
60416;SDS011;46263;44.726;10.396;2022-12-29T11:53:05;97.10;;;35.83;;
60416;SDS011;46263;44.726;10.396;2022-12-29T11:55:41;104.25;;;38.75;;
60416;SDS011;46263;44.726;10.396;2022-12-29T11:58:17;107.80;;;37.85;;
60416;SDS011;46263;44.726;10.396;2022-12-29T12:00:43;107.85;;;38.45;;
60416;SDS011;46263;44.726;10.396;2022-12-29T12:05:37;108.25;;;39.05;;
60416;SDS011;46263;44.726;10.396;2022-12-29T12:08:22;115.70;;;39.85;;
60416;SDS011;46263;44.726;10.396;2022-12-29T12:11:25;115.22;;;38.63;;
60416;SDS011;46263;44.726;10.396;2022-12-29T12:16:53;109.40;;;39.55;;
60416;SDS011;46263;44.726;10.396;2022-12-29T12:27:46;105.28;;;36.17;;
60416;SDS011;46263;44.726;10.396;2022-12-29T12:30:22;106.22;;;38.45;;
60416;SDS011;46263;44.726;10.396;2022-12-29T12:41:25;102.65;;;37.90;;
60416;SDS011;46263;44.726;10.396;2022-12-29T12:44:22;94.63;;;35.80;;
60416;SDS011;46263;44.726;10.396;2022-12-29T12:52:45;86.35;;;32.08;;
60416;SDS011;46263;44.726;10.396;2022-12-29T12:57:50;77.30;;;30.52;;
60416;SDS011;46263;44.726;10.396;2022-12-29T13:00:24;70.00;;;28.40;;
60416;SDS011;46263;44.726;10.396;2022-12-29T13:22:08;79.95;;;32.10;;
60416;SDS011;46263;44.726;10.396;2022-12-29T13:24:59;84.50;;;32.45;;
60416;SDS011;46263;44.726;10.396;2022-12-29T13:27:42;92.77;;;35.73;;
60416;SDS011;46263;44.726;10.396;2022-12-29T13:30:23;107.22;;;37.25;;
60416;SDS011;46263;44.726;10.396;2022-12-29T13:33:00;90.25;;;37.10;;
60416;SDS011;46263;44.726;10.396;2022-12-29T13:38:21;100.00;;;34.70;;
60416;SDS011;46263;44.726;10.396;2022-12-29T13:40:53;90.13;;;34.08;;
60416;SDS011;46263;44.726;10.396;2022-12-29T13:43:21;82.47;;;33.28;;
60416;SDS011;46263;44.726;10.396;2022-12-29T13:48:40;100.97;;;36.55;;
60416;SDS011;46263;44.726;10.396;2022-12-29T13:51:12;104.10;;;38.78;;
60416;SDS011;46263;44.726;10.396;2022-12-29T13:53:51;102.82;;;38.63;;
60416;SDS011;46263;44.726;10.396;2022-12-29T13:56:21;105.13;;;38.00;;
60416;SDS011;46263;44.726;10.396;2022-12-29T13:58:56;97.47;;;36.88;;
60416;SDS011;46263;44.726;10.396;2022-12-29T14:01:33;88.95;;;34.30;;
60416;SDS011;46263;44.726;10.396;2022-12-29T14:04:14;88.78;;;31.40;;
60416;SDS011;46263;44.726;10.396;2022-12-29T14:06:47;79.15;;;31.92;;
60416;SDS011;46263;44.726;10.396;2022-12-29T14:11:59;77.55;;;28.08;;
60416;SDS011;46263;44.726;10.396;2022-12-29T14:14:25;81.70;;;29.42;;
60416;SDS011;46263;44.726;10.396;2022-12-29T14:17:03;75.55;;;28.05;;
60416;SDS011;46263;44.726;10.396;2022-12-29T14:19:35;66.75;;;27.92;;
60416;SDS011;46263;44.726;10.396;2022-12-29T14:22:06;76.57;;;29.10;;
60416;SDS011;46263;44.726;10.396;2022-12-29T14:26:59;77.28;;;28.77;;
60416;SDS011;46263;44.726;10.396;2022-12-29T14:34:46;78.65;;;29.95;;
60416;SDS011;46263;44.726;10.396;2022-12-29T14:37:26;68.22;;;28.48;;
60416;SDS011;46263;44.726;10.396;2022-12-29T14:42:51;93.82;;;35.53;;
60416;SDS011;46263;44.726;10.396;2022-12-29T14:47:49;90.57;;;36.42;;
60416;SDS011;46263;44.726;10.396;2022-12-29T14:52:47;102.30;;;34.50;;
60416;SDS011;46263;44.726;10.396;2022-12-29T14:57:41;103.93;;;38.20;;
60416;SDS011;46263;44.726;10.396;2022-12-29T15:00:17;101.55;;;36.90;;
60416;SDS011;46263;44.726;10.396;2022-12-29T15:02:46;91.78;;;32.45;;
60416;SDS011;46263;44.726;10.396;2022-12-29T15:08:06;103.40;;;38.35;;
60416;SDS011;46263;44.726;10.396;2022-12-29T15:10:40;103.85;;;37.30;;
60416;SDS011;46263;44.726;10.396;2022-12-29T15:13:14;101.65;;;37.55;;
60416;SDS011;46263;44.726;10.396;2022-12-29T15:15:42;101.10;;;38.67;;
60416;SDS011;46263;44.726;10.396;2022-12-29T15:18:20;103.07;;;36.40;;
60416;SDS011;46263;44.726;10.396;2022-12-29T15:20:51;103.20;;;37.40;;
60416;SDS011;46263;44.726;10.396;2022-12-29T15:23:20;92.28;;;37.10;;
60416;SDS011;46263;44.726;10.396;2022-12-29T15:26:05;91.40;;;33.92;;
60416;SDS011;46263;44.726;10.396;2022-12-29T15:31:12;101.32;;;36.80;;
60416;SDS011;46263;44.726;10.396;2022-12-29T15:33:40;103.35;;;38.10;;
60416;SDS011;46263;44.726;10.396;2022-12-29T15:36:10;96.13;;;36.72;;
60416;SDS011;46263;44.726;10.396;2022-12-29T15:38:37;100.00;;;35.88;;
60416;SDS011;46263;44.726;10.396;2022-12-29T15:41:12;88.40;;;38.05;;
60416;SDS011;46263;44.726;10.396;2022-12-29T15:44:29;85.20;;;30.10;;
60416;SDS011;46263;44.726;10.396;2022-12-29T15:47:06;95.10;;;32.60;;
60416;SDS011;46263;44.726;10.396;2022-12-29T15:50:20;90.15;;;32.28;;
60416;SDS011;46263;44.726;10.396;2022-12-29T15:52:49;107.55;;;38.45;;
60416;SDS011;46263;44.726;10.396;2022-12-29T15:55:24;99.25;;;35.75;;
60416;SDS011;46263;44.726;10.396;2022-12-29T15:57:56;95.70;;;35.78;;
60416;SDS011;46263;44.726;10.396;2022-12-29T16:00:24;94.20;;;37.22;;
60416;SDS011;46263;44.726;10.396;2022-12-29T16:02:55;95.68;;;36.17;;
60416;SDS011;46263;44.726;10.396;2022-12-29T16:05:24;99.15;;;36.00;;
60416;SDS011;46263;44.726;10.396;2022-12-29T16:07:58;98.15;;;40.30;;
60416;SDS011;46263;44.726;10.396;2022-12-29T16:10:26;92.30;;;35.85;;
60416;SDS011;46263;44.726;10.396;2022-12-29T16:15:59;99.28;;;35.85;;
60416;SDS011;46263;44.726;10.396;2022-12-29T16:18:41;97.30;;;33.65;;
60416;SDS011;46263;44.726;10.396;2022-12-29T16:21:15;88.35;;;35.45;;
60416;SDS011;46263;44.726;10.396;2022-12-29T16:23:47;92.30;;;32.88;;
60416;SDS011;46263;44.726;10.396;2022-12-29T16:26:15;98.15;;;37.20;;
60416;SDS011;46263;44.726;10.396;2022-12-29T16:28:43;98.50;;;35.20;;
60416;SDS011;46263;44.726;10.396;2022-12-29T16:31:20;90.75;;;33.90;;
60416;SDS011;46263;44.726;10.396;2022-12-29T16:33:49;90.75;;;36.80;;
60416;SDS011;46263;44.726;10.396;2022-12-29T16:41:51;106.82;;;38.10;;
60416;SDS011;46263;44.726;10.396;2022-12-29T16:47:37;98.43;;;38.42;;
60416;SDS011;46263;44.726;10.396;2022-12-29T16:49:41;97.15;;;35.40;;
60416;SDS011;46263;44.726;10.396;2022-12-29T16:52:11;90.60;;;34.78;;
60416;SDS011;46263;44.726;10.396;2022-12-29T16:54:38;96.75;;;36.08;;
60416;SDS011;46263;44.726;10.396;2022-12-29T16:57:05;101.07;;;38.15;;
60416;SDS011;46263;44.726;10.396;2022-12-29T16:59:39;95.78;;;35.63;;
60416;SDS011;46263;44.726;10.396;2022-12-29T17:02:13;98.53;;;37.22;;
60416;SDS011;46263;44.726;10.396;2022-12-29T17:04:41;103.97;;;40.95;;
60416;SDS011;46263;44.726;10.396;2022-12-29T17:07:26;97.70;;;40.60;;
60416;SDS011;46263;44.726;10.396;2022-12-29T17:09:52;96.28;;;39.05;;